sensor_id;sensor_type;location;lat;lon;timestamp;P1;durP1;ratioP1;P2;durP2;ratioP2
69220;SDS011;56331;51.992;20.910;2023-04-08T00:01:27;1.90;;;1.47;;
69220;SDS011;56331;51.992;20.910;2023-04-08T00:03:54;2.05;;;1.45;;
69220;SDS011;56331;51.992;20.910;2023-04-08T00:06:20;1.82;;;1.62;;
69220;SDS011;56331;51.992;20.910;2023-04-08T00:08:47;2.45;;;1.70;;
69220;SDS011;56331;51.992;20.910;2023-04-08T00:11:13;1.85;;;1.30;;
69220;SDS011;56331;51.992;20.910;2023-04-08T00:13:40;2.52;;;1.57;;
69220;SDS011;56331;51.992;20.910;2023-04-08T00:16:06;2.90;;;1.42;;
69220;SDS011;56331;51.992;20.910;2023-04-08T00:18:33;2.83;;;1.98;;
69220;SDS011;56331;51.992;20.910;2023-04-08T00:49:04;1.92;;;1.50;;
69220;SDS011;56331;51.992;20.910;2023-04-08T00:55:00;1.50;;;1.25;;
69220;SDS011;56331;51.992;20.910;2023-04-08T00:57:26;2.17;;;1.60;;
69220;SDS011;56331;51.992;20.910;2023-04-08T00:59:53;1.80;;;1.70;;
69220;SDS011;56331;51.992;20.910;2023-04-08T01:02:35;2.20;;;1.50;;
69220;SDS011;56331;51.992;20.910;2023-04-08T01:08:16;3.15;;;1.80;;
69220;SDS011;56331;51.992;20.910;2023-04-08T01:10:43;1.92;;;1.35;;
69220;SDS011;56331;51.992;20.910;2023-04-08T01:13:13;2.50;;;1.60;;
69220;SDS011;56331;51.992;20.910;2023-04-08T01:15:41;2.25;;;1.47;;
69220;SDS011;56331;51.992;20.910;2023-04-08T01:18:10;1.60;;;1.40;;
69220;SDS011;56331;51.992;20.910;2023-04-08T01:20:42;2.10;;;1.50;;
69220;SDS011;56331;51.992;20.910;2023-04-08T01:26:04;1.82;;;1.62;;
69220;SDS011;56331;51.992;20.910;2023-04-08T01:28:31;2.30;;;1.57;;
69220;SDS011;56331;51.992;20.910;2023-04-08T01:31:00;1.87;;;1.40;;
69220;SDS011;56331;51.992;20.910;2023-04-08T01:33:28;1.92;;;1.67;;
69220;SDS011;56331;51.992;20.910;2023-04-08T01:35:59;1.67;;;1.37;;
69220;SDS011;56331;51.992;20.910;2023-04-08T01:38:27;1.60;;;1.50;;
69220;SDS011;56331;51.992;20.910;2023-04-08T01:40:59;1.55;;;1.45;;
69220;SDS011;56331;51.992;20.910;2023-04-08T01:43:28;1.62;;;1.42;;
69220;SDS011;56331;51.992;20.910;2023-04-08T01:45:56;2.37;;;1.50;;
69220;SDS011;56331;51.992;20.910;2023-04-08T01:48:23;2.05;;;1.65;;
69220;SDS011;56331;51.992;20.910;2023-04-08T01:50:50;1.62;;;1.50;;
69220;SDS011;56331;51.992;20.910;2023-04-08T01:53:38;2.12;;;1.50;;
69220;SDS011;56331;51.992;20.910;2023-04-08T01:56:06;1.67;;;1.17;;
69220;SDS011;56331;51.992;20.910;2023-04-08T02:01:05;2.15;;;1.60;;
69220;SDS011;56331;51.992;20.910;2023-04-08T02:06:00;1.80;;;1.70;;
69220;SDS011;56331;51.992;20.910;2023-04-08T02:08:27;1.77;;;1.55;;
69220;SDS011;56331;51.992;20.910;2023-04-08T02:10:53;1.98;;;1.57;;
69220;SDS011;56331;51.992;20.910;2023-04-08T02:13:20;1.87;;;1.70;;
69220;SDS011;56331;51.992;20.910;2023-04-08T02:15:50;2.00;;;1.80;;
69220;SDS011;56331;51.992;20.910;2023-04-08T02:18:24;2.15;;;1.70;;
69220;SDS011;56331;51.992;20.910;2023-04-08T02:21:08;1.77;;;1.57;;
69220;SDS011;56331;51.992;20.910;2023-04-08T02:23:41;2.10;;;1.62;;
69220;SDS011;56331;51.992;20.910;2023-04-08T02:26:12;1.80;;;1.65;;
69220;SDS011;56331;51.992;20.910;2023-04-08T02:28:39;2.80;;;1.70;;
69220;SDS011;56331;51.992;20.910;2023-04-08T02:31:09;1.87;;;1.70;;
69220;SDS011;56331;51.992;20.910;2023-04-08T02:33:43;1.62;;;1.35;;
69220;SDS011;56331;51.992;20.910;2023-04-08T02:36:09;2.05;;;1.60;;
69220;SDS011;56331;51.992;20.910;2023-04-08T02:38:37;1.57;;;1.45;;
69220;SDS011;56331;51.992;20.910;2023-04-08T02:41:04;2.47;;;1.50;;
69220;SDS011;56331;51.992;20.910;2023-04-08T02:43:31;1.87;;;1.60;;
69220;SDS011;56331;51.992;20.910;2023-04-08T02:45:58;1.95;;;1.62;;
69220;SDS011;56331;51.992;20.910;2023-04-08T02:48:34;2.27;;;1.50;;
69220;SDS011;56331;51.992;20.910;2023-04-08T02:51:01;1.92;;;1.67;;
69220;SDS011;56331;51.992;20.910;2023-04-08T02:53:28;2.12;;;1.72;;
69220;SDS011;56331;51.992;20.910;2023-04-08T02:55:55;1.95;;;1.60;;
69220;SDS011;56331;51.992;20.910;2023-04-08T02:58:21;1.77;;;1.57;;
69220;SDS011;56331;51.992;20.910;2023-04-08T03:00:50;1.80;;;1.55;;
69220;SDS011;56331;51.992;20.910;2023-04-08T03:03:16;1.80;;;1.40;;
69220;SDS011;56331;51.992;20.910;2023-04-08T03:05:43;1.98;;;1.50;;
69220;SDS011;56331;51.992;20.910;2023-04-08T03:08:09;1.67;;;1.50;;
69220;SDS011;56331;51.992;20.910;2023-04-08T03:10:36;2.05;;;1.70;;
69220;SDS011;56331;51.992;20.910;2023-04-08T03:13:02;1.60;;;1.35;;
69220;SDS011;56331;51.992;20.910;2023-04-08T03:15:29;1.90;;;1.70;;
69220;SDS011;56331;51.992;20.910;2023-04-08T03:17:56;1.60;;;1.50;;
69220;SDS011;56331;51.992;20.910;2023-04-08T03:20:23;1.50;;;1.32;;
69220;SDS011;56331;51.992;20.910;2023-04-08T03:22:49;1.57;;;1.40;;
69220;SDS011;56331;51.992;20.910;2023-04-08T03:25:16;2.80;;;1.67;;
69220;SDS011;56331;51.992;20.910;2023-04-08T03:27:43;2.20;;;1.67;;
69220;SDS011;56331;51.992;20.910;2023-04-08T03:30:09;1.70;;;1.42;;
69220;SDS011;56331;51.992;20.910;2023-04-08T03:32:36;1.85;;;1.40;;
69220;SDS011;56331;51.992;20.910;2023-04-08T03:35:03;2.08;;;1.52;;
69220;SDS011;56331;51.992;20.910;2023-04-08T03:37:31;1.30;;;1.20;;
69220;SDS011;56331;51.992;20.910;2023-04-08T03:39:58;1.90;;;1.40;;
69220;SDS011;56331;51.992;20.910;2023-04-08T03:42:25;1.65;;;1.42;;
69220;SDS011;56331;51.992;20.910;2023-04-08T03:44:51;1.57;;;1.30;;
69220;SDS011;56331;51.992;20.910;2023-04-08T03:47:18;1.70;;;1.40;;
69220;SDS011;56331;51.992;20.910;2023-04-08T03:49:45;1.70;;;1.45;;
69220;SDS011;56331;51.992;20.910;2023-04-08T03:52:11;1.72;;;1.50;;
69220;SDS011;56331;51.992;20.910;2023-04-08T03:54:39;1.45;;;1.32;;
69220;SDS011;56331;51.992;20.910;2023-04-08T03:57:05;2.00;;;1.47;;
69220;SDS011;56331;51.992;20.910;2023-04-08T03:59:32;1.70;;;1.30;;
69220;SDS011;56331;51.992;20.910;2023-04-08T04:01:59;2.22;;;1.70;;
69220;SDS011;56331;51.992;20.910;2023-04-08T04:04:25;1.95;;;1.47;;
69220;SDS011;56331;51.992;20.910;2023-04-08T04:06:51;2.87;;;1.98;;
69220;SDS011;56331;51.992;20.910;2023-04-08T04:09:18;1.80;;;1.55;;
69220;SDS011;56331;51.992;20.910;2023-04-08T04:11:45;1.70;;;1.60;;
69220;SDS011;56331;51.992;20.910;2023-04-08T04:14:11;1.65;;;1.50;;
69220;SDS011;56331;51.992;20.910;2023-04-08T04:16:38;1.80;;;1.65;;
69220;SDS011;56331;51.992;20.910;2023-04-08T04:19:04;2.52;;;2.00;;
69220;SDS011;56331;51.992;20.910;2023-04-08T04:21:31;1.95;;;1.60;;
69220;SDS011;56331;51.992;20.910;2023-04-08T04:23:58;2.40;;;2.00;;
69220;SDS011;56331;51.992;20.910;2023-04-08T04:26:25;2.85;;;2.10;;
69220;SDS011;56331;51.992;20.910;2023-04-08T04:28:51;2.20;;;2.00;;
69220;SDS011;56331;51.992;20.910;2023-04-08T04:31:22;2.10;;;1.90;;
69220;SDS011;56331;51.992;20.910;2023-04-08T04:33:53;2.10;;;1.90;;
69220;SDS011;56331;51.992;20.910;2023-04-08T04:36:19;2.02;;;1.77;;
69220;SDS011;56331;51.992;20.910;2023-04-08T04:38:48;1.85;;;1.67;;
69220;SDS011;56331;51.992;20.910;2023-04-08T04:41:15;2.50;;;2.00;;
69220;SDS011;56331;51.992;20.910;2023-04-08T04:43:49;2.25;;;1.85;;
69220;SDS011;56331;51.992;20.910;2023-04-08T04:46:15;2.17;;;1.77;;
69220;SDS011;56331;51.992;20.910;2023-04-08T04:48:42;2.87;;;2.20;;
69220;SDS011;56331;51.992;20.910;2023-04-08T04:51:08;2.00;;;1.80;;
69220;SDS011;56331;51.992;20.910;2023-04-08T04:53:35;1.95;;;1.75;;
69220;SDS011;56331;51.992;20.910;2023-04-08T04:56:01;2.62;;;1.90;;
69220;SDS011;56331;51.992;20.910;2023-04-08T04:58:28;2.10;;;1.85;;
69220;SDS011;56331;51.992;20.910;2023-04-08T05:00:55;1.67;;;1.55;;
69220;SDS011;56331;51.992;20.910;2023-04-08T05:03:21;2.22;;;1.90;;
69220;SDS011;56331;51.992;20.910;2023-04-08T05:05:51;2.12;;;1.92;;
69220;SDS011;56331;51.992;20.910;2023-04-08T05:08:19;2.12;;;1.92;;
69220;SDS011;56331;51.992;20.910;2023-04-08T05:10:46;2.47;;;1.90;;
69220;SDS011;56331;51.992;20.910;2023-04-08T05:13:14;2.40;;;1.85;;
69220;SDS011;56331;51.992;20.910;2023-04-08T05:15:41;2.90;;;1.67;;
69220;SDS011;56331;51.992;20.910;2023-04-08T05:18:07;1.80;;;1.60;;
69220;SDS011;56331;51.992;20.910;2023-04-08T05:20:34;2.17;;;1.70;;
69220;SDS011;56331;51.992;20.910;2023-04-08T05:23:00;2.35;;;2.00;;
69220;SDS011;56331;51.992;20.910;2023-04-08T05:25:26;2.25;;;2.05;;
69220;SDS011;56331;51.992;20.910;2023-04-08T05:27:53;2.40;;;1.90;;
69220;SDS011;56331;51.992;20.910;2023-04-08T05:30:19;2.20;;;1.75;;
69220;SDS011;56331;51.992;20.910;2023-04-08T05:32:46;2.22;;;1.90;;
69220;SDS011;56331;51.992;20.910;2023-04-08T05:35:13;2.65;;;2.17;;
69220;SDS011;56331;51.992;20.910;2023-04-08T05:37:39;3.72;;;1.87;;
69220;SDS011;56331;51.992;20.910;2023-04-08T05:40:06;3.40;;;1.90;;
69220;SDS011;56331;51.992;20.910;2023-04-08T05:42:33;3.25;;;1.75;;
69220;SDS011;56331;51.992;20.910;2023-04-08T05:45:00;2.67;;;2.10;;
69220;SDS011;56331;51.992;20.910;2023-04-08T05:47:26;2.67;;;2.00;;
69220;SDS011;56331;51.992;20.910;2023-04-08T05:49:54;4.67;;;1.87;;
69220;SDS011;56331;51.992;20.910;2023-04-08T05:52:21;2.85;;;1.90;;
69220;SDS011;56331;51.992;20.910;2023-04-08T05:54:47;2.67;;;1.90;;
69220;SDS011;56331;51.992;20.910;2023-04-08T05:57:13;2.52;;;1.82;;
69220;SDS011;56331;51.992;20.910;2023-04-08T05:59:41;6.05;;;2.33;;
69220;SDS011;56331;51.992;20.910;2023-04-08T06:02:07;2.42;;;1.90;;
69220;SDS011;56331;51.992;20.910;2023-04-08T06:04:34;4.75;;;2.00;;
69220;SDS011;56331;51.992;20.910;2023-04-08T06:07:03;7.42;;;2.58;;
69220;SDS011;56331;51.992;20.910;2023-04-08T06:09:33;2.75;;;2.17;;
69220;SDS011;56331;51.992;20.910;2023-04-08T06:12:02;2.62;;;2.10;;
69220;SDS011;56331;51.992;20.910;2023-04-08T06:14:29;2.92;;;2.35;;
69220;SDS011;56331;51.992;20.910;2023-04-08T06:16:56;2.47;;;2.10;;
69220;SDS011;56331;51.992;20.910;2023-04-08T06:19:22;2.65;;;2.12;;
69220;SDS011;56331;51.992;20.910;2023-04-08T06:21:49;2.60;;;2.20;;
69220;SDS011;56331;51.992;20.910;2023-04-08T06:24:16;2.22;;;2.00;;
69220;SDS011;56331;51.992;20.910;2023-04-08T06:26:42;6.97;;;2.00;;
69220;SDS011;56331;51.992;20.910;2023-04-08T06:29:09;2.77;;;2.22;;
69220;SDS011;56331;51.992;20.910;2023-04-08T06:31:37;5.67;;;2.10;;
69220;SDS011;56331;51.992;20.910;2023-04-08T06:34:04;2.58;;;2.12;;
69220;SDS011;56331;51.992;20.910;2023-04-08T06:36:30;2.47;;;2.27;;
69220;SDS011;56331;51.992;20.910;2023-04-08T06:38:57;2.77;;;1.98;;
69220;SDS011;56331;51.992;20.910;2023-04-08T06:41:23;2.37;;;2.00;;
69220;SDS011;56331;51.992;20.910;2023-04-08T06:43:50;4.42;;;2.42;;
69220;SDS011;56331;51.992;20.910;2023-04-08T06:46:16;2.70;;;2.37;;
69220;SDS011;56331;51.992;20.910;2023-04-08T06:48:43;2.35;;;1.90;;
69220;SDS011;56331;51.992;20.910;2023-04-08T06:51:09;4.08;;;2.10;;
69220;SDS011;56331;51.992;20.910;2023-04-08T06:53:36;8.25;;;1.90;;
69220;SDS011;56331;51.992;20.910;2023-04-08T06:56:02;2.00;;;1.80;;
69220;SDS011;56331;51.992;20.910;2023-04-08T06:58:29;2.95;;;2.05;;
69220;SDS011;56331;51.992;20.910;2023-04-08T07:00:57;2.45;;;2.00;;
69220;SDS011;56331;51.992;20.910;2023-04-08T07:03:25;3.67;;;1.82;;
69220;SDS011;56331;51.992;20.910;2023-04-08T07:05:52;5.00;;;1.80;;
69220;SDS011;56331;51.992;20.910;2023-04-08T07:08:18;4.45;;;2.20;;
69220;SDS011;56331;51.992;20.910;2023-04-08T07:10:45;2.52;;;2.17;;
69220;SDS011;56331;51.992;20.910;2023-04-08T07:13:11;4.35;;;2.10;;
69220;SDS011;56331;51.992;20.910;2023-04-08T07:15:39;2.33;;;1.82;;
69220;SDS011;56331;51.992;20.910;2023-04-08T07:18:06;3.90;;;2.10;;
69220;SDS011;56331;51.992;20.910;2023-04-08T07:20:33;3.20;;;2.00;;
69220;SDS011;56331;51.992;20.910;2023-04-08T07:23:01;2.08;;;1.87;;
69220;SDS011;56331;51.992;20.910;2023-04-08T07:25:28;2.05;;;1.60;;
69220;SDS011;56331;51.992;20.910;2023-04-08T07:27:54;2.30;;;1.95;;
69220;SDS011;56331;51.992;20.910;2023-04-08T07:30:21;2.47;;;2.02;;
69220;SDS011;56331;51.992;20.910;2023-04-08T07:32:48;2.45;;;1.60;;
69220;SDS011;56331;51.992;20.910;2023-04-08T07:35:14;3.90;;;1.82;;
69220;SDS011;56331;51.992;20.910;2023-04-08T07:37:43;2.90;;;2.00;;
69220;SDS011;56331;51.992;20.910;2023-04-08T07:40:09;2.45;;;1.90;;
69220;SDS011;56331;51.992;20.910;2023-04-08T07:42:36;2.12;;;1.77;;
69220;SDS011;56331;51.992;20.910;2023-04-08T07:45:03;2.30;;;1.72;;
69220;SDS011;56331;51.992;20.910;2023-04-08T07:47:30;2.72;;;2.05;;
69220;SDS011;56331;51.992;20.910;2023-04-08T07:49:57;2.67;;;1.90;;
69220;SDS011;56331;51.992;20.910;2023-04-08T07:52:23;3.35;;;1.95;;
69220;SDS011;56331;51.992;20.910;2023-04-08T07:54:50;2.25;;;2.05;;
69220;SDS011;56331;51.992;20.910;2023-04-08T07:57:16;2.20;;;1.82;;
69220;SDS011;56331;51.992;20.910;2023-04-08T07:59:42;2.70;;;1.98;;
69220;SDS011;56331;51.992;20.910;2023-04-08T08:02:09;5.80;;;1.80;;
69220;SDS011;56331;51.992;20.910;2023-04-08T08:04:35;7.05;;;2.40;;
69220;SDS011;56331;51.992;20.910;2023-04-08T08:07:02;19.02;;;3.10;;
69220;SDS011;56331;51.992;20.910;2023-04-08T08:09:28;14.73;;;3.52;;
69220;SDS011;56331;51.992;20.910;2023-04-08T08:11:55;18.60;;;3.50;;
69220;SDS011;56331;51.992;20.910;2023-04-08T08:14:21;15.03;;;3.40;;
69220;SDS011;56331;51.992;20.910;2023-04-08T08:16:48;11.35;;;2.95;;
69220;SDS011;56331;51.992;20.910;2023-04-08T08:19:19;10.58;;;2.92;;
69220;SDS011;56331;51.992;20.910;2023-04-08T08:21:46;12.55;;;3.10;;
69220;SDS011;56331;51.992;20.910;2023-04-08T08:24:12;9.45;;;2.80;;
69220;SDS011;56331;51.992;20.910;2023-04-08T08:26:39;8.30;;;3.10;;
69220;SDS011;56331;51.992;20.910;2023-04-08T08:29:05;11.12;;;3.20;;
69220;SDS011;56331;51.992;20.910;2023-04-08T08:31:33;6.65;;;2.77;;
69220;SDS011;56331;51.992;20.910;2023-04-08T08:34:00;7.47;;;2.60;;
69220;SDS011;56331;51.992;20.910;2023-04-08T08:36:27;5.80;;;2.10;;
69220;SDS011;56331;51.992;20.910;2023-04-08T08:38:55;7.70;;;2.62;;
69220;SDS011;56331;51.992;20.910;2023-04-08T08:41:21;4.67;;;2.55;;
69220;SDS011;56331;51.992;20.910;2023-04-08T08:43:48;4.70;;;2.20;;
69220;SDS011;56331;51.992;20.910;2023-04-08T08:46:15;7.15;;;2.40;;
69220;SDS011;56331;51.992;20.910;2023-04-08T08:48:44;9.30;;;2.10;;
69220;SDS011;56331;51.992;20.910;2023-04-08T08:51:11;6.40;;;2.35;;
69220;SDS011;56331;51.992;20.910;2023-04-08T08:53:38;6.62;;;2.50;;
69220;SDS011;56331;51.992;20.910;2023-04-08T08:56:07;3.30;;;2.35;;
69220;SDS011;56331;51.992;20.910;2023-04-08T08:58:34;5.45;;;2.05;;
69220;SDS011;56331;51.992;20.910;2023-04-08T09:01:00;2.80;;;2.12;;
69220;SDS011;56331;51.992;20.910;2023-04-08T09:03:27;5.62;;;2.22;;
69220;SDS011;56331;51.992;20.910;2023-04-08T09:05:54;5.97;;;2.22;;
69220;SDS011;56331;51.992;20.910;2023-04-08T09:11:09;2.35;;;2.00;;
69220;SDS011;56331;51.992;20.910;2023-04-08T09:13:41;4.37;;;2.02;;
69220;SDS011;56331;51.992;20.910;2023-04-08T09:16:09;2.62;;;1.95;;
69220;SDS011;56331;51.992;20.910;2023-04-08T09:18:37;3.92;;;2.05;;
69220;SDS011;56331;51.992;20.910;2023-04-08T09:21:05;2.22;;;1.70;;
69220;SDS011;56331;51.992;20.910;2023-04-08T09:23:46;2.98;;;1.98;;
69220;SDS011;56331;51.992;20.910;2023-04-08T09:26:15;4.97;;;2.15;;
69220;SDS011;56331;51.992;20.910;2023-04-08T09:29:01;4.70;;;2.27;;
69220;SDS011;56331;51.992;20.910;2023-04-08T09:31:31;5.45;;;1.87;;
69220;SDS011;56331;51.992;20.910;2023-04-08T09:33:59;2.50;;;2.00;;
69220;SDS011;56331;51.992;20.910;2023-04-08T09:36:29;5.55;;;1.90;;
69220;SDS011;56331;51.992;20.910;2023-04-08T09:38:55;3.12;;;1.72;;
69220;SDS011;56331;51.992;20.910;2023-04-08T09:41:27;3.92;;;2.00;;
69220;SDS011;56331;51.992;20.910;2023-04-08T09:43:55;3.22;;;2.00;;
69220;SDS011;56331;51.992;20.910;2023-04-08T09:46:25;3.25;;;1.77;;
69220;SDS011;56331;51.992;20.910;2023-04-08T09:49:04;6.50;;;2.08;;
69220;SDS011;56331;51.992;20.910;2023-04-08T09:53:55;6.33;;;2.33;;
69220;SDS011;56331;51.992;20.910;2023-04-08T09:56:34;5.25;;;2.17;;
69220;SDS011;56331;51.992;20.910;2023-04-08T09:59:08;3.65;;;2.00;;
69220;SDS011;56331;51.992;20.910;2023-04-08T10:01:36;4.05;;;2.30;;
69220;SDS011;56331;51.992;20.910;2023-04-08T10:04:08;3.33;;;2.10;;
69220;SDS011;56331;51.992;20.910;2023-04-08T10:06:34;5.15;;;1.90;;
69220;SDS011;56331;51.992;20.910;2023-04-08T10:09:03;2.65;;;2.05;;
69220;SDS011;56331;51.992;20.910;2023-04-08T10:11:29;6.03;;;2.17;;
69220;SDS011;56331;51.992;20.910;2023-04-08T10:13:56;4.15;;;2.10;;
69220;SDS011;56331;51.992;20.910;2023-04-08T10:16:23;3.08;;;2.00;;
69220;SDS011;56331;51.992;20.910;2023-04-08T10:18:52;4.90;;;2.12;;
69220;SDS011;56331;51.992;20.910;2023-04-08T10:21:32;2.85;;;1.90;;
69220;SDS011;56331;51.992;20.910;2023-04-08T10:24:08;2.58;;;1.98;;
69220;SDS011;56331;51.992;20.910;2023-04-08T10:26:37;3.33;;;2.40;;
69220;SDS011;56331;51.992;20.910;2023-04-08T10:29:29;2.50;;;2.02;;
69220;SDS011;56331;51.992;20.910;2023-04-08T10:31:41;3.17;;;2.10;;
69220;SDS011;56331;51.992;20.910;2023-04-08T10:34:14;3.20;;;2.20;;
69220;SDS011;56331;51.992;20.910;2023-04-08T10:36:44;3.95;;;2.20;;
69220;SDS011;56331;51.992;20.910;2023-04-08T10:39:12;3.35;;;2.12;;
69220;SDS011;56331;51.992;20.910;2023-04-08T10:41:50;3.63;;;2.13;;
69220;SDS011;56331;51.992;20.910;2023-04-08T10:44:22;3.87;;;1.77;;
69220;SDS011;56331;51.992;20.910;2023-04-08T10:46:46;3.98;;;2.20;;
69220;SDS011;56331;51.992;20.910;2023-04-08T10:49:15;7.87;;;2.22;;
69220;SDS011;56331;51.992;20.910;2023-04-08T10:51:45;3.05;;;1.98;;
69220;SDS011;56331;51.992;20.910;2023-04-08T10:54:12;3.85;;;2.20;;
69220;SDS011;56331;51.992;20.910;2023-04-08T10:56:44;4.67;;;1.95;;
69220;SDS011;56331;51.992;20.910;2023-04-08T10:59:13;2.42;;;2.00;;
69220;SDS011;56331;51.992;20.910;2023-04-08T11:01:44;3.02;;;2.25;;
69220;SDS011;56331;51.992;20.910;2023-04-08T11:04:16;4.78;;;2.17;;
69220;SDS011;56331;51.992;20.910;2023-04-08T11:06:43;4.70;;;2.25;;
69220;SDS011;56331;51.992;20.910;2023-04-08T11:09:11;4.40;;;1.98;;
69220;SDS011;56331;51.992;20.910;2023-04-08T11:11:43;2.75;;;1.75;;
69220;SDS011;56331;51.992;20.910;2023-04-08T11:14:12;4.00;;;2.05;;
69220;SDS011;56331;51.992;20.910;2023-04-08T11:16:39;4.87;;;2.30;;
69220;SDS011;56331;51.992;20.910;2023-04-08T11:19:06;5.62;;;2.15;;
69220;SDS011;56331;51.992;20.910;2023-04-08T11:21:34;2.67;;;1.80;;
69220;SDS011;56331;51.992;20.910;2023-04-08T11:24:05;3.05;;;1.87;;
69220;SDS011;56331;51.992;20.910;2023-04-08T11:26:32;3.35;;;1.95;;
69220;SDS011;56331;51.992;20.910;2023-04-08T11:29:02;5.62;;;2.40;;
69220;SDS011;56331;51.992;20.910;2023-04-08T11:31:28;2.90;;;2.00;;
69220;SDS011;56331;51.992;20.910;2023-04-08T11:33:59;2.83;;;2.20;;
69220;SDS011;56331;51.992;20.910;2023-04-08T11:36:27;3.98;;;2.22;;
69220;SDS011;56331;51.992;20.910;2023-04-08T11:38:55;2.53;;;2.17;;
69220;SDS011;56331;51.992;20.910;2023-04-08T11:41:21;2.22;;;1.85;;
69220;SDS011;56331;51.992;20.910;2023-04-08T11:43:52;2.85;;;2.02;;
69220;SDS011;56331;51.992;20.910;2023-04-08T11:46:20;5.62;;;2.30;;
69220;SDS011;56331;51.992;20.910;2023-04-08T11:48:59;3.10;;;2.05;;
69220;SDS011;56331;51.992;20.910;2023-04-08T11:51:28;3.05;;;2.10;;
69220;SDS011;56331;51.992;20.910;2023-04-08T11:53:57;3.02;;;1.92;;
69220;SDS011;56331;51.992;20.910;2023-04-08T11:56:23;3.02;;;2.12;;
69220;SDS011;56331;51.992;20.910;2023-04-08T11:58:50;3.77;;;2.25;;
69220;SDS011;56331;51.992;20.910;2023-04-08T12:01:17;3.08;;;2.42;;
69220;SDS011;56331;51.992;20.910;2023-04-08T12:04:00;2.55;;;2.20;;
69220;SDS011;56331;51.992;20.910;2023-04-08T12:06:24;11.63;;;2.77;;
69220;SDS011;56331;51.992;20.910;2023-04-08T12:08:53;4.67;;;2.60;;
69220;SDS011;56331;51.992;20.910;2023-04-08T12:11:20;4.53;;;2.17;;
69220;SDS011;56331;51.992;20.910;2023-04-08T12:13:49;3.12;;;2.35;;
69220;SDS011;56331;51.992;20.910;2023-04-08T12:16:15;3.65;;;2.12;;
69220;SDS011;56331;51.992;20.910;2023-04-08T12:18:42;3.05;;;2.17;;
69220;SDS011;56331;51.992;20.910;2023-04-08T12:21:08;2.35;;;2.15;;
69220;SDS011;56331;51.992;20.910;2023-04-08T12:23:35;3.40;;;2.27;;
69220;SDS011;56331;51.992;20.910;2023-04-08T12:26:02;2.70;;;2.22;;
69220;SDS011;56331;51.992;20.910;2023-04-08T12:28:29;3.20;;;2.22;;
69220;SDS011;56331;51.992;20.910;2023-04-08T12:30:56;4.80;;;2.77;;
69220;SDS011;56331;51.992;20.910;2023-04-08T12:33:22;2.70;;;2.40;;
69220;SDS011;56331;51.992;20.910;2023-04-08T12:35:49;5.75;;;2.33;;
69220;SDS011;56331;51.992;20.910;2023-04-08T12:38:15;3.72;;;2.45;;
69220;SDS011;56331;51.992;20.910;2023-04-08T12:40:42;2.47;;;2.10;;
69220;SDS011;56331;51.992;20.910;2023-04-08T12:43:08;3.47;;;2.45;;
69220;SDS011;56331;51.992;20.910;2023-04-08T12:45:35;3.85;;;2.10;;
69220;SDS011;56331;51.992;20.910;2023-04-08T12:48:01;3.60;;;2.20;;
69220;SDS011;56331;51.992;20.910;2023-04-08T12:50:31;3.62;;;2.20;;
69220;SDS011;56331;51.992;20.910;2023-04-08T12:52:57;2.92;;;2.27;;
69220;SDS011;56331;51.992;20.910;2023-04-08T12:55:24;2.67;;;2.12;;
69220;SDS011;56331;51.992;20.910;2023-04-08T12:57:50;5.85;;;2.50;;
69220;SDS011;56331;51.992;20.910;2023-04-08T13:00:17;2.77;;;2.20;;
69220;SDS011;56331;51.992;20.910;2023-04-08T13:02:44;4.75;;;2.45;;
69220;SDS011;56331;51.992;20.910;2023-04-08T13:05:11;4.60;;;2.35;;
69220;SDS011;56331;51.992;20.910;2023-04-08T13:07:38;4.62;;;3.00;;
69220;SDS011;56331;51.992;20.910;2023-04-08T13:10:04;5.75;;;2.85;;
69220;SDS011;56331;51.992;20.910;2023-04-08T13:12:32;4.40;;;3.47;;
69220;SDS011;56331;51.992;20.910;2023-04-08T13:14:58;5.22;;;3.83;;
69220;SDS011;56331;51.992;20.910;2023-04-08T13:17:26;5.72;;;4.00;;
69220;SDS011;56331;51.992;20.910;2023-04-08T13:19:52;4.67;;;3.98;;
69220;SDS011;56331;51.992;20.910;2023-04-08T13:22:19;4.42;;;3.70;;
69220;SDS011;56331;51.992;20.910;2023-04-08T13:24:45;5.30;;;3.55;;
69220;SDS011;56331;51.992;20.910;2023-04-08T13:27:12;4.25;;;3.52;;
69220;SDS011;56331;51.992;20.910;2023-04-08T13:29:40;5.72;;;3.50;;
69220;SDS011;56331;51.992;20.910;2023-04-08T13:32:08;3.72;;;3.25;;
69220;SDS011;56331;51.992;20.910;2023-04-08T13:34:37;3.72;;;3.30;;
69220;SDS011;56331;51.992;20.910;2023-04-08T13:37:03;3.87;;;3.30;;
69220;SDS011;56331;51.992;20.910;2023-04-08T13:39:31;6.25;;;3.20;;
69220;SDS011;56331;51.992;20.910;2023-04-08T13:41:58;3.22;;;2.83;;
69220;SDS011;56331;51.992;20.910;2023-04-08T13:44:24;4.12;;;2.85;;
69220;SDS011;56331;51.992;20.910;2023-04-08T13:46:50;4.12;;;2.58;;
69220;SDS011;56331;51.992;20.910;2023-04-08T13:49:17;5.58;;;2.62;;
69220;SDS011;56331;51.992;20.910;2023-04-08T13:51:46;3.77;;;2.80;;
69220;SDS011;56331;51.992;20.910;2023-04-08T13:54:12;3.55;;;2.60;;
69220;SDS011;56331;51.992;20.910;2023-04-08T13:56:39;3.75;;;3.08;;
69220;SDS011;56331;51.992;20.910;2023-04-08T13:59:05;8.20;;;2.60;;
69220;SDS011;56331;51.992;20.910;2023-04-08T14:01:31;4.00;;;2.60;;
69220;SDS011;56331;51.992;20.910;2023-04-08T14:03:58;5.08;;;2.55;;
69220;SDS011;56331;51.992;20.910;2023-04-08T14:06:25;6.20;;;2.42;;
69220;SDS011;56331;51.992;20.910;2023-04-08T14:08:52;4.20;;;2.58;;
69220;SDS011;56331;51.992;20.910;2023-04-08T14:11:18;4.33;;;2.77;;
69220;SDS011;56331;51.992;20.910;2023-04-08T14:13:46;3.30;;;2.55;;
69220;SDS011;56331;51.992;20.910;2023-04-08T14:16:12;4.37;;;2.58;;
69220;SDS011;56331;51.992;20.910;2023-04-08T14:18:39;2.70;;;2.25;;
69220;SDS011;56331;51.992;20.910;2023-04-08T14:21:05;4.80;;;2.40;;
69220;SDS011;56331;51.992;20.910;2023-04-08T14:23:32;2.58;;;2.20;;
69220;SDS011;56331;51.992;20.910;2023-04-08T14:26:00;3.00;;;2.60;;
69220;SDS011;56331;51.992;20.910;2023-04-08T14:28:26;3.05;;;2.62;;
69220;SDS011;56331;51.992;20.910;2023-04-08T14:30:53;3.90;;;2.70;;
69220;SDS011;56331;51.992;20.910;2023-04-08T14:33:20;3.33;;;2.77;;
69220;SDS011;56331;51.992;20.910;2023-04-08T14:35:46;6.60;;;2.65;;
69220;SDS011;56331;51.992;20.910;2023-04-08T14:38:13;6.25;;;2.33;;
69220;SDS011;56331;51.992;20.910;2023-04-08T14:40:39;4.75;;;2.77;;
69220;SDS011;56331;51.992;20.910;2023-04-08T14:43:05;5.10;;;2.25;;
69220;SDS011;56331;51.992;20.910;2023-04-08T14:45:32;4.17;;;2.67;;
69220;SDS011;56331;51.992;20.910;2023-04-08T14:47:58;5.37;;;2.83;;
69220;SDS011;56331;51.992;20.910;2023-04-08T14:50:25;7.42;;;2.52;;
69220;SDS011;56331;51.992;20.910;2023-04-08T14:52:52;4.92;;;2.92;;
69220;SDS011;56331;51.992;20.910;2023-04-08T14:55:18;5.53;;;2.67;;
69220;SDS011;56331;51.992;20.910;2023-04-08T14:57:47;6.03;;;3.12;;
69220;SDS011;56331;51.992;20.910;2023-04-08T15:00:13;5.15;;;3.67;;
69220;SDS011;56331;51.992;20.910;2023-04-08T15:02:41;9.33;;;3.80;;
69220;SDS011;56331;51.992;20.910;2023-04-08T15:05:07;4.47;;;3.40;;
69220;SDS011;56331;51.992;20.910;2023-04-08T15:07:34;5.85;;;3.58;;
69220;SDS011;56331;51.992;20.910;2023-04-08T15:10:00;6.17;;;2.87;;
69220;SDS011;56331;51.992;20.910;2023-04-08T15:12:27;4.25;;;2.90;;
69220;SDS011;56331;51.992;20.910;2023-04-08T15:14:59;7.12;;;3.00;;
69220;SDS011;56331;51.992;20.910;2023-04-08T15:17:26;8.13;;;2.95;;
69220;SDS011;56331;51.992;20.910;2023-04-08T15:19:52;5.17;;;2.95;;
69220;SDS011;56331;51.992;20.910;2023-04-08T15:22:18;4.15;;;3.35;;
69220;SDS011;56331;51.992;20.910;2023-04-08T15:24:46;5.22;;;2.70;;